createdAt,value
2022-12-22T00:01:13.836Z,-1.13
2022-12-22T00:03:59.047Z,-1.04
2022-12-22T00:06:44.519Z,-0.97
2022-12-22T00:09:29.519Z,-0.96
2022-12-22T00:12:14.499Z,-0.89
2022-12-22T00:14:59.927Z,-0.83
2022-12-22T00:17:46.279Z,-0.69
2022-12-22T00:20:33.063Z,-0.63
2022-12-22T00:23:17.975Z,-0.63
2022-12-22T00:26:03.476Z,-0.79
2022-12-22T00:28:48.509Z,-0.87
2022-12-22T00:31:33.813Z,-0.88
2022-12-22T00:34:18.867Z,-0.81
2022-12-22T00:37:04.111Z,-0.85
2022-12-22T00:39:49.043Z,-0.85
2022-12-22T00:42:34.249Z,-0.81
2022-12-22T00:45:19.389Z,-0.87
2022-12-22T00:48:05.102Z,-0.92
2022-12-22T00:50:51.735Z,-0.83
2022-12-22T00:53:36.838Z,-0.91
2022-12-22T00:56:25.304Z,-0.91
2022-12-22T00:59:11.712Z,-0.97
2022-12-22T01:01:56.897Z,-0.89
2022-12-22T01:04:41.769Z,-0.89
2022-12-22T01:07:29.758Z,-0.93
2022-12-22T01:10:15.329Z,-0.90
2022-12-22T01:13:00.227Z,-0.82
2022-12-22T01:15:45.854Z,-0.68
2022-12-22T01:18:30.694Z,-0.65
2022-12-22T01:21:16.047Z,-0.63
2022-12-22T01:24:01.573Z,-0.56
2022-12-22T01:26:46.925Z,-0.56
2022-12-22T01:29:32.465Z,-0.49
2022-12-22T01:32:17.825Z,-0.49
2022-12-22T01:35:03.363Z,-0.59
2022-12-22T01:37:48.281Z,-0.60
2022-12-22T01:40:37.679Z,-0.72
2022-12-22T01:43:36.966Z,-0.67
2022-12-22T01:47:00.732Z,-0.73
2022-12-22T01:49:51.632Z,-0.76
2022-12-22T01:52:37.845Z,-0.74
2022-12-22T01:55:26.396Z,-0.75
2022-12-22T01:58:11.597Z,-0.76
2022-12-22T02:00:56.761Z,-0.74
2022-12-22T02:03:42.091Z,-0.73
2022-12-22T02:06:26.883Z,-0.75
2022-12-22T02:09:21.370Z,-0.74
2022-12-22T02:12:26.641Z,-0.78
2022-12-22T02:15:25.707Z,-0.78
2022-12-22T02:18:29.825Z,-0.82
2022-12-22T02:21:19.555Z,-0.81
2022-12-22T02:24:07.427Z,-0.82
2022-12-22T02:26:54.855Z,-0.79
2022-12-22T02:29:51.954Z,-0.73
2022-12-22T02:32:39.069Z,-0.77
2022-12-22T02:35:31.082Z,-0.69
2022-12-22T02:38:16.095Z,-0.81
2022-12-22T02:41:33.762Z,-0.95
2022-12-22T02:44:18.704Z,-1.06
2022-12-22T02:47:09.877Z,-1.10
2022-12-22T02:49:58.981Z,-1.17
2022-12-22T02:52:48.388Z,-1.14
2022-12-22T02:55:34.216Z,-1.24
2022-12-22T02:58:19.882Z,-1.27
2022-12-22T03:01:05.141Z,-1.20
2022-12-22T03:03:50.314Z,-1.14
2022-12-22T03:06:35.195Z,-0.95
2022-12-22T03:09:20.404Z,-0.92
2022-12-22T03:12:05.475Z,-0.91
2022-12-22T03:14:50.411Z,-0.89
2022-12-22T03:17:35.533Z,-0.75
2022-12-22T03:20:20.418Z,-0.69
2022-12-22T03:23:05.522Z,-0.75
2022-12-22T03:25:50.617Z,-0.81
2022-12-22T03:28:17.135Z,-0.76
2022-12-22T03:30:43.669Z,-0.69
2022-12-22T03:33:10.215Z,-0.62
2022-12-22T03:35:36.742Z,-0.58
2022-12-22T03:38:03.763Z,-0.51
2022-12-22T03:40:31.173Z,-0.46
2022-12-22T03:43:16.311Z,-0.46
2022-12-22T03:46:01.587Z,-0.41
2022-12-22T03:48:28.179Z,-0.44
2022-12-22T03:50:54.700Z,-0.33
2022-12-22T03:53:21.342Z,-0.20
2022-12-22T03:55:47.869Z,-0.22
2022-12-22T03:58:14.382Z,-0.39
2022-12-22T04:00:40.964Z,-0.46
2022-12-22T04:03:07.664Z,-0.55
2022-12-22T04:05:34.397Z,-0.64
2022-12-22T04:08:00.903Z,-0.67
2022-12-22T04:10:46.143Z,-0.69
2022-12-22T04:13:12.653Z,-0.66
2022-12-22T04:15:39.141Z,-0.74
2022-12-22T04:18:05.722Z,-0.79
2022-12-22T04:20:32.352Z,-0.85
2022-12-22T04:22:59.430Z,-0.86
2022-12-22T04:25:26.577Z,-0.92
2022-12-22T04:27:53.058Z,-0.94
2022-12-22T04:30:19.635Z,-0.98
2022-12-22T04:32:46.286Z,-1.03
2022-12-22T04:35:12.796Z,-0.95
2022-12-22T04:37:39.350Z,-0.94
2022-12-22T04:40:06.250Z,-1.03
2022-12-22T04:42:32.868Z,-1.06
2022-12-22T04:44:59.418Z,-1.03
2022-12-22T04:47:25.937Z,-1.05
2022-12-22T04:49:52.519Z,-0.84
2022-12-22T04:52:19.029Z,-0.83
2022-12-22T04:54:45.599Z,-0.92
2022-12-22T04:57:12.106Z,-0.76
2022-12-22T04:59:38.626Z,-0.75
2022-12-22T05:02:05.219Z,-0.81
2022-12-22T05:04:32.485Z,-0.86
2022-12-22T05:06:59.035Z,-0.84
2022-12-22T05:09:25.569Z,-0.85
2022-12-22T05:11:52.098Z,-0.83
2022-12-22T05:14:18.640Z,-0.86
2022-12-22T05:16:45.304Z,-0.92
2022-12-22T05:19:11.847Z,-0.93
2022-12-22T05:21:38.425Z,-0.87
2022-12-22T05:24:05.140Z,-0.83
2022-12-22T05:26:31.701Z,-0.91
2022-12-22T05:28:58.285Z,-0.95
2022-12-22T05:31:25.650Z,-0.88
2022-12-22T05:33:52.631Z,-0.89
2022-12-22T05:36:19.471Z,-0.86
2022-12-22T05:38:46.059Z,-0.92
2022-12-22T05:41:12.650Z,-0.92
2022-12-22T05:43:39.190Z,-0.89
2022-12-22T05:46:06.744Z,-0.94
2022-12-22T05:48:37.984Z,-1.11
2022-12-22T05:51:06.693Z,-1.20
2022-12-22T05:53:33.224Z,-1.24
2022-12-22T05:55:59.825Z,-1.27
2022-12-22T05:58:26.427Z,-1.22
2022-12-22T06:00:56.251Z,-1.21
2022-12-22T06:03:22.869Z,-1.21
2022-12-22T06:05:50.486Z,-1.20
2022-12-22T06:08:17.012Z,-1.06
2022-12-22T06:10:43.559Z,-1.02
2022-12-22T06:13:10.107Z,-1.02
2022-12-22T06:15:36.711Z,-1.09
2022-12-22T06:18:03.285Z,-1.16
2022-12-22T06:20:29.836Z,-1.23
2022-12-22T06:22:56.527Z,-1.27
2022-12-22T06:25:23.049Z,-1.32
2022-12-22T06:27:49.578Z,-1.38
2022-12-22T06:30:16.374Z,-1.39
2022-12-22T06:32:42.960Z,-1.40
2022-12-22T06:35:09.921Z,-1.43
2022-12-22T06:37:36.492Z,-1.50
2022-12-22T06:40:03.785Z,-1.49
2022-12-22T06:42:48.939Z,-1.47
2022-12-22T06:45:15.502Z,-1.47
2022-12-22T06:47:42.042Z,-1.44
2022-12-22T06:50:08.815Z,-1.45
2022-12-22T06:52:35.472Z,-1.43
2022-12-22T06:55:02.409Z,-1.37
2022-12-22T06:57:29.278Z,-1.36
2022-12-22T06:59:57.974Z,-1.31
2022-12-22T07:02:24.920Z,-1.28
2022-12-22T07:04:51.619Z,-1.25
2022-12-22T07:07:18.193Z,-1.23
2022-12-22T07:09:44.781Z,-1.23
2022-12-22T07:12:11.292Z,-1.22
2022-12-22T07:14:37.800Z,-1.24
2022-12-22T07:17:04.359Z,-1.24
2022-12-22T07:19:30.903Z,-1.20
2022-12-22T07:21:57.458Z,-0.97
2022-12-22T07:24:26.089Z,-0.52
2022-12-22T07:26:52.865Z,-0.07
2022-12-22T07:29:19.369Z,0.35
2022-12-22T07:31:45.937Z,0.56
2022-12-22T07:34:12.646Z,0.71
2022-12-22T07:36:39.206Z,0.72
2022-12-22T07:39:05.948Z,0.72
2022-12-22T07:41:50.840Z,0.76
2022-12-22T07:44:17.381Z,0.79
2022-12-22T07:46:43.952Z,0.73
2022-12-22T07:49:29.767Z,0.60
2022-12-22T07:51:57.105Z,0.38
2022-12-22T07:54:24.144Z,0.24
2022-12-22T07:56:50.817Z,0.11
2022-12-22T07:59:17.705Z,-0.14
2022-12-22T08:01:45.723Z,-0.40
2022-12-22T08:04:12.836Z,-0.43
2022-12-22T08:06:39.432Z,-0.46
2022-12-22T08:09:06.800Z,-0.55
2022-12-22T08:11:33.530Z,-0.70
2022-12-22T08:14:01.924Z,-0.71
2022-12-22T08:16:29.415Z,-0.71
2022-12-22T08:18:56.329Z,-0.77
2022-12-22T08:21:22.922Z,-0.81
2022-12-22T08:23:49.565Z,-0.80
2022-12-22T08:26:18.318Z,-0.82
2022-12-22T08:28:50.524Z,-0.85
2022-12-22T08:31:17.414Z,-0.74
2022-12-22T08:33:43.972Z,-0.60
2022-12-22T08:36:11.235Z,-0.54
2022-12-22T08:38:39.599Z,-0.53
2022-12-22T08:41:07.787Z,-0.42
2022-12-22T08:43:34.338Z,-0.32
2022-12-22T08:46:00.909Z,-0.26
2022-12-22T08:48:27.478Z,-0.23
2022-12-22T08:50:54.042Z,-0.17
2022-12-22T08:53:54.086Z,-0.13
2022-12-22T08:56:07.182Z,-0.11
2022-12-22T08:58:33.716Z,-0.09
2022-12-22T09:01:00.358Z,-0.02
2022-12-22T09:03:26.910Z,0.03
2022-12-22T09:06:00.093Z,0.07
2022-12-22T09:08:26.600Z,0.11
2022-12-22T09:10:53.146Z,0.17
2022-12-22T09:13:19.646Z,0.42
2022-12-22T09:15:46.217Z,0.49
2022-12-22T09:18:12.696Z,0.48
2022-12-22T09:20:39.203Z,0.41
2022-12-22T09:23:05.799Z,0.37
2022-12-22T09:25:34.375Z,0.36
2022-12-22T09:28:00.935Z,0.32
2022-12-22T09:30:27.442Z,0.48
2022-12-22T09:32:56.741Z,0.65
2022-12-22T09:35:23.231Z,0.65
2022-12-22T09:37:49.771Z,0.67
2022-12-22T09:40:16.318Z,0.68
2022-12-22T09:42:43.007Z,0.70
2022-12-22T09:45:17.014Z,0.67
2022-12-22T09:47:45.500Z,0.69
2022-12-22T09:50:16.138Z,0.80
2022-12-22T09:52:46.569Z,0.87
2022-12-22T09:55:15.654Z,0.92
2022-12-22T09:57:42.181Z,0.91
2022-12-22T10:00:14.452Z,0.84
2022-12-22T10:03:04.072Z,0.84
2022-12-22T10:05:38.400Z,0.88
2022-12-22T10:08:17.002Z,0.87
2022-12-22T10:10:43.618Z,0.91
2022-12-22T10:13:19.648Z,0.96
2022-12-22T10:15:46.250Z,1.03
2022-12-22T10:18:14.077Z,1.04
2022-12-22T10:20:41.645Z,1.13
2022-12-22T10:23:16.817Z,1.19
2022-12-22T10:29:06.890Z,1.25
2022-12-22T10:31:35.311Z,1.31
2022-12-22T10:34:13.130Z,1.36
2022-12-22T10:36:40.573Z,1.40
2022-12-22T10:39:08.646Z,1.56
2022-12-22T10:41:40.876Z,1.56
2022-12-22T10:44:13.779Z,1.63
2022-12-22T10:46:41.489Z,1.76
2022-12-22T10:49:13.131Z,1.81
2022-12-22T10:51:40.687Z,1.82
2022-12-22T10:54:07.165Z,1.91
2022-12-22T10:56:34.854Z,1.90
2022-12-22T10:59:01.342Z,1.85
2022-12-22T11:01:37.805Z,1.83
2022-12-22T11:04:16.334Z,1.86
2022-12-22T11:06:43.674Z,2.02
2022-12-22T11:09:32.407Z,2.15
2022-12-22T11:12:04.967Z,2.10
2022-12-22T11:14:50.244Z,2.22
2022-12-22T11:17:26.746Z,2.25
2022-12-22T11:20:13.525Z,2.32
2022-12-22T11:23:03.315Z,2.50
2022-12-22T11:25:35.996Z,2.61
2022-12-22T11:28:20.921Z,2.64
2022-12-22T11:30:59.383Z,2.86
2022-12-22T11:33:28.742Z,2.94
2022-12-22T11:36:01.279Z,3.26
2022-12-22T11:38:36.681Z,3.17
2022-12-22T11:41:35.372Z,3.17
2022-12-22T11:44:18.617Z,3.45
2022-12-22T11:47:04.181Z,3.27
2022-12-22T11:49:33.593Z,3.16
2022-12-22T11:52:00.185Z,3.14
2022-12-22T11:54:35.897Z,3.09
2022-12-22T11:57:02.551Z,3.10
2022-12-22T11:59:47.624Z,3.09
2022-12-22T12:02:32.803Z,3.15
2022-12-22T12:05:02.078Z,3.22
2022-12-22T12:07:45.718Z,3.20
2022-12-22T12:10:15.145Z,3.35
2022-12-22T12:13:25.579Z,3.42
2022-12-22T12:15:55.932Z,3.32
2022-12-22T12:18:26.896Z,3.28
2022-12-22T12:21:13.637Z,3.25
2022-12-22T12:23:59.621Z,3.22
2022-12-22T12:26:32.195Z,3.17
2022-12-22T12:29:20.353Z,3.14
2022-12-22T12:31:55.733Z,3.14
2022-12-22T12:34:22.961Z,3.23
2022-12-22T12:37:02.063Z,3.43
2022-12-22T12:39:28.621Z,3.45
2022-12-22T12:42:07.359Z,3.50
2022-12-22T12:44:37.527Z,3.54
2022-12-22T12:47:25.604Z,3.60
2022-12-22T12:49:59.802Z,3.97
2022-12-22T12:52:43.576Z,3.92
2022-12-22T12:55:31.553Z,3.86
2022-12-22T12:57:59.738Z,4.04
2022-12-22T13:00:32.295Z,4.01
2022-12-22T13:03:08.168Z,3.99
2022-12-22T13:05:36.640Z,4.03
2022-12-22T13:08:12.508Z,3.99
2022-12-22T13:11:02.307Z,4.01
2022-12-22T13:13:28.791Z,3.95
2022-12-22T13:15:58.188Z,3.92
2022-12-22T13:18:24.760Z,3.88
2022-12-22T13:21:18.743Z,3.84
2022-12-22T13:24:23.646Z,3.81
2022-12-22T13:26:43.339Z,3.81
2022-12-22T13:29:21.927Z,3.80
2022-12-22T13:31:50.524Z,3.82
2022-12-22T13:34:51.353Z,3.81
2022-12-22T13:37:25.457Z,3.81
2022-12-22T13:40:07.291Z,3.86
2022-12-22T13:42:45.572Z,3.78
2022-12-22T13:45:17.921Z,3.68
2022-12-22T13:47:45.259Z,3.63
2022-12-22T13:50:22.942Z,3.64
2022-12-22T13:52:50.661Z,3.67
2022-12-22T13:55:19.236Z,3.67
2022-12-22T13:57:45.791Z,3.61
2022-12-22T14:00:19.570Z,3.59
2022-12-22T14:02:46.217Z,3.58
2022-12-22T14:05:14.273Z,3.65
2022-12-22T14:07:41.242Z,3.62
2022-12-22T14:10:08.188Z,3.56
2022-12-22T14:12:40.401Z,3.52
2022-12-22T14:15:12.276Z,3.56
2022-12-22T14:17:44.605Z,3.61
2022-12-22T14:20:23.376Z,3.52
2022-12-22T14:22:53.297Z,3.39
2022-12-22T14:25:21.838Z,3.30
2022-12-22T14:27:53.219Z,3.37
2022-12-22T14:30:21.072Z,3.34
2022-12-22T14:32:54.349Z,3.29
2022-12-22T14:35:24.338Z,3.25
2022-12-22T14:37:52.162Z,3.32
2022-12-22T14:40:29.886Z,3.21
2022-12-22T14:42:57.213Z,3.12
2022-12-22T14:45:24.231Z,3.10
2022-12-22T14:47:51.504Z,3.12
2022-12-22T14:50:20.273Z,3.07
2022-12-22T14:52:51.452Z,2.95
2022-12-22T14:55:35.635Z,2.91
2022-12-22T14:58:11.369Z,2.83
2022-12-22T15:00:42.029Z,2.78
2022-12-22T15:03:24.067Z,2.76
2022-12-22T15:05:51.006Z,2.59
2022-12-22T15:08:38.823Z,2.56
2022-12-22T15:11:25.776Z,2.51
2022-12-22T15:13:52.442Z,2.45
2022-12-22T15:16:20.095Z,2.39
2022-12-22T15:18:47.475Z,2.37
2022-12-22T15:21:15.278Z,2.30
2022-12-22T15:23:42.034Z,2.16
2022-12-22T15:26:08.815Z,2.08
2022-12-22T15:28:35.365Z,2.08
2022-12-22T15:31:03.090Z,2.06
2022-12-22T15:33:30.369Z,2.05
2022-12-22T15:35:57.452Z,1.97
2022-12-22T15:38:25.343Z,1.87
2022-12-22T15:40:52.449Z,1.82
2022-12-22T15:46:06.491Z,1.62
2022-12-22T15:48:34.172Z,1.58
2022-12-22T15:51:02.543Z,1.51
2022-12-22T15:53:29.758Z,1.36
2022-12-22T15:55:58.603Z,1.23
2022-12-22T15:58:27.341Z,1.17
2022-12-22T16:00:53.918Z,1.15
2022-12-22T16:03:20.707Z,1.13
2022-12-22T16:05:47.421Z,1.10
2022-12-22T16:08:19.913Z,1.10
2022-12-22T16:10:47.064Z,1.06
2022-12-22T16:13:15.540Z,1.08
2022-12-22T16:15:42.360Z,1.14
2022-12-22T16:18:11.877Z,1.13
2022-12-22T16:20:40.039Z,1.10
2022-12-22T16:23:11.167Z,0.98
2022-12-22T16:25:38.936Z,0.93
2022-12-22T16:28:06.330Z,0.95
2022-12-22T16:30:33.826Z,0.98
2022-12-22T16:33:00.980Z,1.21
2022-12-22T16:35:28.925Z,1.20
2022-12-22T16:37:56.665Z,1.18
2022-12-22T16:40:23.753Z,1.14
2022-12-22T16:45:36.837Z,1.27
2022-12-22T16:48:10.030Z,1.49
2022-12-22T16:50:36.572Z,1.37
2022-12-22T16:53:04.348Z,1.21
2022-12-22T16:55:31.141Z,1.15
2022-12-22T16:57:57.727Z,1.15
2022-12-22T17:00:25.846Z,1.11
2022-12-22T17:02:54.788Z,1.06
2022-12-22T17:05:29.493Z,1.12
2022-12-22T17:07:57.663Z,1.06
2022-12-22T17:10:24.443Z,0.96
2022-12-22T17:12:52.379Z,0.88
2022-12-22T17:15:21.522Z,0.86
2022-12-22T17:17:48.817Z,0.86
2022-12-22T17:20:16.200Z,0.74
2022-12-22T17:22:46.310Z,0.72
2022-12-22T17:25:24.508Z,0.66
2022-12-22T17:27:51.071Z,0.61
2022-12-22T17:30:22.124Z,0.65
2022-12-22T17:32:49.427Z,0.62
2022-12-22T17:35:16.637Z,0.62
2022-12-22T17:37:44.534Z,0.66
2022-12-22T17:40:15.614Z,0.62
2022-12-22T17:42:42.305Z,0.59
2022-12-22T17:45:15.719Z,0.60
2022-12-22T17:47:43.103Z,0.64
2022-12-22T17:50:14.956Z,0.64
2022-12-22T17:52:42.162Z,0.56
2022-12-22T17:55:49.743Z,0.56
2022-12-22T17:58:06.872Z,0.55
2022-12-22T18:00:33.364Z,0.45
2022-12-22T18:03:00.131Z,0.38
2022-12-22T18:05:28.775Z,0.36
2022-12-22T18:08:00.034Z,0.25
2022-12-22T18:10:28.604Z,0.24
2022-12-22T18:12:56.582Z,0.22
2022-12-22T18:15:23.920Z,0.11
2022-12-22T18:17:50.426Z,0.20
2022-12-22T18:20:20.112Z,0.23
2022-12-22T18:22:47.052Z,0.22
2022-12-22T18:25:18.508Z,0.25
2022-12-22T18:27:45.010Z,0.30
2022-12-22T18:30:15.344Z,0.27
2022-12-22T18:32:41.843Z,0.29
2022-12-22T18:35:08.548Z,0.22
2022-12-22T18:37:35.257Z,0.14
2022-12-22T18:40:02.006Z,0.16
2022-12-22T18:42:28.538Z,0.13
2022-12-22T18:44:55.119Z,0.05
2022-12-22T18:47:21.756Z,-0.14
2022-12-22T18:49:48.378Z,-0.15
2022-12-22T18:52:18.625Z,-0.13
2022-12-22T18:54:45.376Z,-0.11
2022-12-22T18:57:13.411Z,-0.18
2022-12-22T18:59:39.943Z,-0.27
2022-12-22T19:02:18.394Z,-0.36
2022-12-22T19:04:44.940Z,-0.32
2022-12-22T19:07:15.514Z,-0.24
2022-12-22T19:09:42.806Z,-0.36
2022-12-22T19:12:13.484Z,-0.45
2022-12-22T19:14:41.032Z,-0.41
2022-12-22T19:17:17.334Z,-0.41
2022-12-22T19:19:43.876Z,-0.40
2022-12-22T19:22:14.271Z,-0.37
2022-12-22T19:24:47.588Z,-0.27
2022-12-22T19:27:19.787Z,-0.22
2022-12-22T19:29:46.612Z,-0.22
2022-12-22T19:32:30.158Z,-0.18
2022-12-22T19:34:56.935Z,-0.20
2022-12-22T19:37:23.441Z,-0.19
2022-12-22T19:39:50.040Z,-0.17
2022-12-22T19:42:19.885Z,-0.21
2022-12-22T19:44:46.887Z,-0.20
2022-12-22T19:47:21.021Z,-0.14
2022-12-22T19:49:48.608Z,-0.12
2022-12-22T19:52:15.226Z,-0.15
2022-12-22T19:54:41.739Z,-0.16
2022-12-22T19:57:14.549Z,0.02
2022-12-22T19:59:42.882Z,0.04
2022-12-22T20:02:21.907Z,-0.13
2022-12-22T20:04:49.361Z,-0.23
2022-12-22T20:07:17.219Z,-0.23
2022-12-22T20:09:43.787Z,-0.09
2022-12-22T20:12:30.637Z,-0.12
2022-12-22T20:14:57.679Z,-0.23
2022-12-22T20:17:24.269Z,-0.34
2022-12-22T20:19:50.809Z,-0.47
2022-12-22T20:22:18.395Z,-0.47
2022-12-22T20:24:45.399Z,-0.42
2022-12-22T20:27:21.430Z,-0.37
2022-12-22T20:29:48.262Z,-0.39
2022-12-22T20:32:15.230Z,-0.42
2022-12-22T20:34:42.162Z,-0.39
2022-12-22T20:37:15.466Z,-0.39
2022-12-22T20:39:42.541Z,-0.27
2022-12-22T20:42:19.041Z,-0.24
2022-12-22T20:45:02.122Z,-0.30
2022-12-22T20:47:31.075Z,-0.32
2022-12-22T20:49:57.592Z,-0.29
2022-12-22T20:52:24.101Z,-0.17
2022-12-22T20:54:50.700Z,-0.19
2022-12-22T20:57:17.367Z,-0.14
2022-12-22T20:59:44.528Z,-0.09
2022-12-22T21:02:20.331Z,-0.03
2022-12-22T21:04:47.198Z,0.15
2022-12-22T21:07:13.686Z,0.11
2022-12-22T21:09:41.629Z,0.23
2022-12-22T21:12:08.188Z,0.13
2022-12-22T21:14:34.752Z,0.05
2022-12-22T21:17:01.475Z,-0.02
2022-12-22T21:19:28.169Z,-0.05
2022-12-22T21:21:54.942Z,-0.03
2022-12-22T21:24:21.567Z,-0.01
2022-12-22T21:26:53.236Z,-0.08
2022-12-22T21:29:21.705Z,-0.11
2022-12-22T21:31:48.299Z,-0.09
2022-12-22T21:34:14.940Z,-0.09
2022-12-22T21:36:43.684Z,-0.03
2022-12-22T21:39:20.172Z,-0.07
2022-12-22T21:42:01.915Z,-0.10
2022-12-22T21:44:29.646Z,-0.11
2022-12-22T21:46:56.513Z,-0.09
2022-12-22T21:49:24.566Z,0.17
2022-12-22T21:51:51.918Z,0.10
2022-12-22T21:54:19.857Z,0.03
2022-12-22T21:56:46.888Z,0.05
2022-12-22T21:59:13.728Z,0.11
2022-12-22T22:01:41.385Z,0.08
2022-12-22T22:04:08.441Z,0.06
2022-12-22T22:06:35.128Z,0.11
2022-12-22T22:09:04.208Z,0.10
2022-12-22T22:11:30.839Z,0.09
2022-12-22T22:13:57.480Z,0.05
2022-12-22T22:16:23.991Z,0.05
2022-12-22T22:18:50.625Z,0.03
2022-12-22T22:21:17.607Z,0.10
2022-12-22T22:23:44.195Z,0.12
2022-12-22T22:26:11.290Z,0.20
2022-12-22T22:28:38.229Z,0.19
2022-12-22T22:31:11.653Z,0.16
2022-12-22T22:33:38.311Z,0.10
2022-12-22T22:36:06.247Z,0.13
2022-12-22T22:38:32.789Z,0.06
2022-12-22T22:40:59.490Z,0.02
2022-12-22T22:43:26.003Z,-0.01
2022-12-22T22:45:52.744Z,-0.01
2022-12-22T22:48:20.671Z,0.00
2022-12-22T22:50:47.181Z,-0.05
2022-12-22T22:53:13.738Z,-0.07
2022-12-22T22:55:40.316Z,-0.09
2022-12-22T22:58:07.463Z,-0.11
2022-12-22T23:00:34.125Z,-0.09
2022-12-22T23:03:00.795Z,-0.03
2022-12-22T23:05:27.477Z,-0.08
2022-12-22T23:07:54.022Z,-0.15
2022-12-22T23:10:20.541Z,-0.18
2022-12-22T23:12:47.120Z,-0.20
2022-12-22T23:15:13.632Z,-0.24
2022-12-22T23:17:40.123Z,-0.20
2022-12-22T23:20:07.217Z,-0.24
2022-12-22T23:22:33.928Z,-0.29
2022-12-22T23:25:00.395Z,-0.31
2022-12-22T23:27:26.970Z,-0.36
2022-12-22T23:29:53.447Z,-0.39
2022-12-22T23:32:19.972Z,-0.39
2022-12-22T23:34:47.857Z,-0.58
2022-12-22T23:37:19.289Z,-0.56
2022-12-22T23:39:46.810Z,-0.63
2022-12-22T23:42:13.588Z,-0.67
2022-12-22T23:44:40.095Z,-0.66
2022-12-22T23:47:06.924Z,-0.75
2022-12-22T23:49:33.566Z,-0.73
2022-12-22T23:52:00.045Z,-0.72
2022-12-22T23:54:26.614Z,-0.71
2022-12-22T23:56:53.191Z,-0.71
2022-12-22T23:59:19.810Z,-0.73
